Creston, IA

1:36 PM CST on February 08, 2016 (GMT -0600)
Creston Municipal

Weather History for KCSQ - November, 2013

Change the Weather History Date:

Tuesday, November 5, 2013

  Actual Average Record
Temperature  
Mean Temperature 48 °F -  
Max Temperature 57 °F 50 °F 73 °F (2015)
Min Temperature 39 °F 32 °F 7 °F (1951)
Degree Days  
Heating Degree Days 17    
Moisture  
Dew Point 47 °F    
Average Humidity 93    
Maximum Humidity 100    
Minimum Humidity 76    
Precipitation  
Precipitation 0.47 in - - ()
Sea Level Pressure  
Sea Level Pressure 29.97 in    
Wind  
Wind Speed 12 mph (ESE)    
Max Wind Speed 22 mph    
Max Gust Speed 38 mph    
Visibility 6 miles    
Events Fog , Rain    
Averages and records for this station are not official NWS values.
T = Trace of Precipitation, MM = Missing Value Source: NWS Daily Summary

Daily Weather History Graph

Daily Weather History Graph

Search for Another Location

Airport or City:

Trip Planner

Search our weather history database for the weather conditions in past years. The results will help you decide how hot, cold, wet, or windy it might be!

Date:

Astronomy

Nov. 05, 2013 Rise Set
Actual Time 6:53 AM CST 5:08 PM CST
Civil Twilight 6:24 AM CST 5:36 PM CST
Nautical Twilight 5:51 AM CST 6:09 PM CST
Astronomical Twilight 5:19 AM CST 6:41 PM CST
Moon 9:09 AM CST (11/5) 7:09 PM CST (11/5)
Length of Visible Light 11h 12m
Length of Day
10h 14m
Waxing Crescent, 7% of the Moon is Illuminated
Nov 5
Waxing Crescent
Nov 9
First Quarter
Nov 17
Full
Nov 25
Last Quarter
Dec 2
New

Hourly Weather History & Observations

Time (CST) Temp. Windchill Dew Point Humidity Pressure Visibility Wind Dir Wind Speed Gust Speed Precip Events Conditions
12:15 AM 48.2 °F - 41.0 °F 76% 30.14 in 10.0 mi NNE 6.9 mph - N/A   Overcast
12:35 AM 48.2 °F - 41.0 °F 76% 30.14 in 10.0 mi ENE 8.1 mph - N/A   Overcast
12:55 AM 46.4 °F 41.5 °F 41.0 °F 81% 30.13 in 10.0 mi ENE 10.4 mph - N/A   Overcast
1:15 AM 48.2 °F - 41.0 °F 76% 30.13 in 10.0 mi NNE 10.4 mph - N/A   Overcast
1:35 AM 46.4 °F 41.5 °F 41.0 °F 81% 30.13 in 10.0 mi NE 10.4 mph - N/A   Overcast
1:55 AM 46.4 °F 41.5 °F 41.0 °F 81% 30.12 in 10.0 mi NE 10.4 mph - N/A   Overcast
2:15 AM 46.4 °F 41.5 °F 41.0 °F 81% 30.12 in 10.0 mi NE 10.4 mph - N/A   Overcast
2:35 AM 46.4 °F 41.9 °F 41.0 °F 81% 30.13 in 10.0 mi ENE 9.2 mph - N/A   Overcast
2:55 AM 46.4 °F 41.9 °F 41.0 °F 81% 30.13 in - East 9.2 mph - N/A   Overcast
3:15 AM 46.4 °F 42.9 °F 41.0 °F 81% 30.14 in 10.0 mi ENE 6.9 mph - N/A   Overcast
3:35 AM 46.4 °F 41.9 °F 41.0 °F 81% 30.13 in 10.0 mi ENE 9.2 mph - N/A   Overcast
3:55 AM 46.4 °F 41.9 °F 41.0 °F 81% 30.13 in 10.0 mi East 9.2 mph - N/A   Overcast
4:15 AM 46.4 °F 42.4 °F 39.2 °F 76% 30.14 in 10.0 mi East 8.1 mph 13.8 mph N/A   Overcast
4:35 AM 46.4 °F 41.5 °F 39.2 °F 76% 30.13 in 10.0 mi ENE 10.4 mph - N/A   Overcast
4:55 AM 46.4 °F 41.1 °F 39.2 °F 76% 30.12 in 10.0 mi ENE 11.5 mph 17.3 mph N/A   Overcast
5:15 AM 46.4 °F 41.1 °F 39.2 °F 76% 30.12 in 10.0 mi ENE 11.5 mph - N/A   Overcast
5:35 AM 46.4 °F 40.7 °F 39.2 °F 76% 30.12 in 10.0 mi ENE 12.7 mph - N/A   Overcast
5:55 AM 46.4 °F 41.9 °F 39.2 °F 76% 30.12 in 10.0 mi ENE 9.2 mph - N/A   Overcast
6:15 AM 46.4 °F 41.5 °F 39.2 °F 76% 30.12 in 8.0 mi East 10.4 mph - N/A   Overcast
6:35 AM 44.6 °F 38.4 °F 41.0 °F 87% 30.12 in 7.0 mi East 12.7 mph - N/A   Overcast
6:55 AM 44.6 °F 39.2 °F 42.8 °F 93% 30.12 in 8.0 mi ENE 10.4 mph - N/A   Overcast
7:15 AM 44.6 °F 38.8 °F 42.8 °F 93% 30.11 in 2.5 mi ENE 11.5 mph - N/A   Overcast
7:35 AM 44.6 °F 38.8 °F 42.8 °F 93% 30.11 in 4.0 mi ENE 11.5 mph 19.6 mph N/A   Overcast
7:55 AM 44.6 °F 38.4 °F 42.8 °F 93% 30.11 in 9.0 mi East 12.7 mph - N/A   Overcast
8:15 AM 44.6 °F 38.1 °F 42.8 °F 93% 30.10 in 4.0 mi East 13.8 mph - N/A   Light Drizzle
8:35 AM 44.6 °F 38.4 °F 44.6 °F 100% 30.09 in 3.0 mi East 12.7 mph 18.4 mph N/A   Light Drizzle
8:55 AM 44.6 °F 38.1 °F 44.6 °F 100% 30.08 in 3.0 mi ENE 13.8 mph - 0.02 in   Overcast
9:15 AM 46.4 °F 41.9 °F 44.6 °F 93% 30.08 in 3.0 mi ENE 9.2 mph 15.0 mph N/A   Overcast
9:35 AM 46.4 °F 41.5 °F 44.6 °F 93% 30.08 in 1.8 mi ENE 10.4 mph - N/A   Overcast
9:55 AM 46.4 °F 41.5 °F 46.4 °F 100% 30.06 in 1.0 mi ENE 10.4 mph - N/A Rain Light Rain
10:15 AM 46.4 °F 41.9 °F 46.4 °F 100% 30.05 in 0.5 mi East 9.2 mph - N/A Fog Fog
10:35 AM 46.4 °F 41.1 °F 46.4 °F 100% 30.04 in 0.5 mi East 11.5 mph - N/A Fog Fog
10:55 AM 48.2 °F - 48.2 °F 100% 30.03 in 0.5 mi East 11.5 mph - N/A Rain Light Rain
11:15 AM 48.2 °F - 48.2 °F 100% 30.01 in 1.0 mi East 12.7 mph - N/A   Overcast
11:35 AM 50.0 °F - 50.0 °F 100% 29.99 in 1.0 mi East 11.5 mph - N/A   Overcast
11:55 AM 50.0 °F - 50.0 °F 100% 29.98 in 0.5 mi ESE 12.7 mph - 0.01 in Fog Fog
12:15 PM 50.0 °F - 50.0 °F 100% 29.97 in 0.8 mi ESE 10.4 mph - N/A Rain Light Rain
12:35 PM 51.8 °F - 51.8 °F 100% 29.94 in 3.0 mi SE 11.5 mph - N/A Rain Light Rain
12:55 PM 51.8 °F - 51.8 °F 100% 29.93 in 2.0 mi SE 13.8 mph - 0.11 in Rain Light Rain
1:15 PM 53.6 °F - 53.6 °F 100% 29.90 in 2.5 mi SE 11.5 mph 18.4 mph N/A Rain Light Rain
1:35 PM 53.6 °F - 53.6 °F 100% 29.89 in 6.0 mi SSE 12.7 mph 19.6 mph N/A   Light Drizzle
1:55 PM 53.6 °F - 53.6 °F 100% 29.88 in 1.8 mi SSE 13.8 mph 21.9 mph 0.04 in   Overcast
2:15 PM 53.6 °F - 53.6 °F 100% 29.87 in 1.2 mi SSE 15.0 mph - N/A   Overcast
2:35 PM 53.6 °F - 53.6 °F 100% 29.86 in 2.0 mi South 12.7 mph 20.7 mph N/A   Overcast
2:55 PM 53.6 °F - 53.6 °F 100% 29.86 in 1.8 mi South 10.4 mph 20.7 mph 0.02 in Rain Light Rain
3:15 PM 53.6 °F - 53.6 °F 100% 29.85 in 2.5 mi South 15.0 mph 20.7 mph N/A   Overcast
3:35 PM 55.4 °F - 53.6 °F 94% 29.84 in 10.0 mi South 15.0 mph 21.9 mph N/A   Overcast
3:55 PM 55.4 °F - 55.4 °F 100% 29.84 in 3.0 mi South 15.0 mph 21.9 mph 0.04 in   Overcast
4:15 PM 55.4 °F - 55.4 °F 100% 29.83 in 4.0 mi South 15.0 mph 23.0 mph N/A Rain Light Rain
4:35 PM 55.4 °F - 55.4 °F 100% 29.82 in 6.0 mi South 21.9 mph 27.6 mph N/A   Overcast
4:55 PM 55.4 °F - 55.4 °F 100% 29.82 in 2.0 mi South 17.3 mph 23.0 mph 0.07 in Rain Light Rain
5:15 PM 55.4 °F - 55.4 °F 100% 29.82 in 6.0 mi South 20.7 mph - N/A   Overcast
5:35 PM 55.4 °F - 55.4 °F 100% 29.82 in 5.0 mi South 17.3 mph 25.3 mph N/A   Overcast
5:55 PM 55.4 °F - 55.4 °F 100% 29.82 in 5.0 mi South 19.6 mph - 0.06 in Rain Light Rain
6:15 PM 55.4 °F - 55.4 °F 100% 29.81 in 5.0 mi South 18.4 mph - N/A   Overcast
6:35 PM 55.4 °F - 55.4 °F 100% 29.81 in 10.0 mi South 16.1 mph - N/A   Overcast
6:55 PM 57.2 °F - 55.4 °F 94% 29.81 in 10.0 mi South 17.3 mph 24.2 mph 0.02 in   Overcast
7:15 PM 57.2 °F - 55.4 °F 94% 29.81 in 9.0 mi SSW 15.0 mph 24.2 mph N/A   Overcast
7:35 PM 57.2 °F - 55.4 °F 94% 29.80 in 10.0 mi South 20.7 mph - N/A   Overcast
7:55 PM 57.2 °F - 55.4 °F 94% 29.80 in 9.0 mi South 17.3 mph 24.2 mph N/A Rain Light Rain
8:15 PM 57.2 °F - 57.2 °F 100% 29.80 in 9.0 mi South 17.3 mph - N/A   Overcast
8:35 PM 57.2 °F - 57.2 °F 100% 29.79 in 8.0 mi South 15.0 mph 21.9 mph N/A   Overcast
8:55 PM 57.2 °F - 57.2 °F 100% 29.80 in 9.0 mi SSW 15.0 mph 21.9 mph N/A   Overcast
9:15 PM 57.2 °F - 57.2 °F 100% 29.80 in 4.0 mi SSW 15.0 mph - N/A   Overcast
9:35 PM 55.4 °F - 55.4 °F 100% 29.82 in 2.0 mi WNW 19.6 mph 38.0 mph N/A   Overcast
9:55 PM 46.4 °F 41.5 °F 46.4 °F 100% 29.83 in 4.0 mi NW 10.4 mph 18.4 mph N/A Rain Light Rain
10:15 PM 46.4 °F 39.5 °F 46.4 °F 100% 29.85 in 2.5 mi NW 17.3 mph - N/A Rain Rain
10:35 PM 42.8 °F 35.1 °F 42.8 °F 100% 29.85 in 5.0 mi NNW 16.1 mph - N/A Rain Light Rain
10:55 PM 42.8 °F 35.4 °F 41.0 °F 93% 29.86 in 10.0 mi NW 15.0 mph - 0.08 in   Overcast
11:15 PM 41.0 °F 32.8 °F 41.0 °F 100% 29.86 in 10.0 mi NW 16.1 mph 23.0 mph N/A   Overcast
11:35 PM 39.2 °F 30.8 °F 39.2 °F 100% 29.87 in 10.0 mi NNW 15.0 mph 21.9 mph N/A   Overcast
11:55 PM 39.2 °F 30.5 °F 37.4 °F 93% 29.89 in 10.0 mi NW 16.1 mph 24.2 mph N/A   Overcast